Decoded Metar for KFNL (FT COLLINS/LOVEL in CO, USA) (IATA:FNL) | Meteo·Mobile Aviation Weather
aviador You're here:

KFNL Decoded Metar

FT COLLINS/LOVEL in CO, USA
Report Time2018-10-20 08:56:00
UTC Time2018-10-20 09:13:39
Flight Rules vfr VFR
Wind030° at 06 kt
W.Decomp.*RWY 06: 4.7 kt HW 3.8 kt LCW
RWY 33: 3.8 kt HW 4.7 kt RCW
W.Rank030° ranks 12
Current wind is below 030° avg. (6.7)
Visibility9999 m
Phenomena:N/A
Clouds:N/A
Expected CloudBase > 2,400 ft AGL from Temp-Dew spread
CeilingNone
Temp04°C (ISA -1)
Dew Point-2°C (65% RH)
AAT-0.4°C
QNH1029 hPa
Density Alt4,439 ft
Elevation5,016 ft
Report Wrong Elevation
Raw Report
KFNL 200856Z AUTO 03006KT 10SM CLR 04/M02 A3040 RMK AO2 SLP267
6//// T00391017 56005 PNO $=

Extra information for KFNL:More info

Metar Taf Metar & Taf Last 4 Metars F.Rules Stats Wind Profile Meteogram Temp Stats Airport Information Weather charts Add Link Nearby VenuesMetar ALERT Operation Metar Decoded Social comments

AIRNAV info for KFNL